sensor_id;sensor_type;location;lat;lon;timestamp;P1;durP1;ratioP1;P2;durP2;ratioP2
22543;SDS011;11438;52.044;8.716;2024-01-10T00:00:36;8.13;;;4.50;;
22543;SDS011;11438;52.044;8.716;2024-01-10T00:03:02;9.77;;;5.83;;
22543;SDS011;11438;52.044;8.716;2024-01-10T00:05:28;9.53;;;4.93;;
22543;SDS011;11438;52.044;8.716;2024-01-10T00:07:53;10.47;;;5.50;;
22543;SDS011;11438;52.044;8.716;2024-01-10T00:10:19;8.17;;;4.90;;
22543;SDS011;11438;52.044;8.716;2024-01-10T00:12:46;10.40;;;5.83;;
22543;SDS011;11438;52.044;8.716;2024-01-10T00:15:12;9.37;;;5.03;;
22543;SDS011;11438;52.044;8.716;2024-01-10T00:17:38;10.17;;;5.30;;
22543;SDS011;11438;52.044;8.716;2024-01-10T00:20:05;10.63;;;5.03;;
22543;SDS011;11438;52.044;8.716;2024-01-10T00:22:31;6.97;;;4.13;;
22543;SDS011;11438;52.044;8.716;2024-01-10T00:24:57;10.10;;;5.40;;
22543;SDS011;11438;52.044;8.716;2024-01-10T00:27:23;8.03;;;4.53;;
22543;SDS011;11438;52.044;8.716;2024-01-10T00:29:48;9.70;;;5.10;;
22543;SDS011;11438;52.044;8.716;2024-01-10T00:32:16;9.50;;;5.33;;
22543;SDS011;11438;52.044;8.716;2024-01-10T00:34:42;11.97;;;5.33;;
22543;SDS011;11438;52.044;8.716;2024-01-10T00:37:07;9.87;;;5.33;;
22543;SDS011;11438;52.044;8.716;2024-01-10T00:39:33;8.93;;;4.77;;
22543;SDS011;11438;52.044;8.716;2024-01-10T00:41:58;8.90;;;4.97;;
22543;SDS011;11438;52.044;8.716;2024-01-10T00:44:24;9.37;;;5.10;;
22543;SDS011;11438;52.044;8.716;2024-01-10T00:46:49;10.43;;;5.23;;
22543;SDS011;11438;52.044;8.716;2024-01-10T00:49:15;7.73;;;4.97;;
22543;SDS011;11438;52.044;8.716;2024-01-10T00:51:40;9.67;;;5.00;;
22543;SDS011;11438;52.044;8.716;2024-01-10T00:54:06;10.63;;;4.97;;
22543;SDS011;11438;52.044;8.716;2024-01-10T00:56:31;10.23;;;5.13;;
22543;SDS011;11438;52.044;8.716;2024-01-10T00:58:57;9.80;;;5.43;;
22543;SDS011;11438;52.044;8.716;2024-01-10T01:01:23;9.50;;;5.13;;
22543;SDS011;11438;52.044;8.716;2024-01-10T01:03:49;11.93;;;5.37;;
22543;SDS011;11438;52.044;8.716;2024-01-10T01:06:15;9.33;;;5.07;;
22543;SDS011;11438;52.044;8.716;2024-01-10T01:08:40;11.77;;;5.77;;
22543;SDS011;11438;52.044;8.716;2024-01-10T01:11:06;10.80;;;5.23;;
22543;SDS011;11438;52.044;8.716;2024-01-10T01:13:31;10.13;;;5.47;;
22543;SDS011;11438;52.044;8.716;2024-01-10T01:15:57;9.23;;;4.80;;
22543;SDS011;11438;52.044;8.716;2024-01-10T01:18:22;9.60;;;5.50;;
22543;SDS011;11438;52.044;8.716;2024-01-10T01:20:47;9.83;;;5.07;;
22543;SDS011;11438;52.044;8.716;2024-01-10T01:23:15;8.73;;;5.30;;
22543;SDS011;11438;52.044;8.716;2024-01-10T01:25:40;8.23;;;4.87;;
22543;SDS011;11438;52.044;8.716;2024-01-10T01:28:06;9.50;;;5.03;;
22543;SDS011;11438;52.044;8.716;2024-01-10T01:30:31;8.37;;;4.77;;
22543;SDS011;11438;52.044;8.716;2024-01-10T01:32:57;10.40;;;5.63;;
22543;SDS011;11438;52.044;8.716;2024-01-10T01:35:22;9.63;;;5.47;;
22543;SDS011;11438;52.044;8.716;2024-01-10T01:37:48;10.43;;;5.57;;
22543;SDS011;11438;52.044;8.716;2024-01-10T01:40:14;10.40;;;5.70;;
22543;SDS011;11438;52.044;8.716;2024-01-10T01:42:40;9.07;;;5.10;;
22543;SDS011;11438;52.044;8.716;2024-01-10T01:45:05;9.20;;;5.30;;
22543;SDS011;11438;52.044;8.716;2024-01-10T01:47:31;11.40;;;5.67;;
22543;SDS011;11438;52.044;8.716;2024-01-10T01:49:57;11.53;;;5.73;;
22543;SDS011;11438;52.044;8.716;2024-01-10T01:52:22;7.80;;;4.67;;
22543;SDS011;11438;52.044;8.716;2024-01-10T01:54:49;8.43;;;5.10;;
22543;SDS011;11438;52.044;8.716;2024-01-10T01:57:15;9.53;;;5.03;;
22543;SDS011;11438;52.044;8.716;2024-01-10T01:59:40;8.10;;;4.80;;
22543;SDS011;11438;52.044;8.716;2024-01-10T02:02:06;7.77;;;4.77;;
22543;SDS011;11438;52.044;8.716;2024-01-10T02:04:32;10.00;;;5.27;;
22543;SDS011;11438;52.044;8.716;2024-01-10T02:06:58;10.57;;;5.20;;
22543;SDS011;11438;52.044;8.716;2024-01-10T02:09:24;9.40;;;5.10;;
22543;SDS011;11438;52.044;8.716;2024-01-10T02:11:50;8.57;;;4.77;;
22543;SDS011;11438;52.044;8.716;2024-01-10T02:14:15;11.43;;;5.03;;
22543;SDS011;11438;52.044;8.716;2024-01-10T02:16:41;9.80;;;5.00;;
22543;SDS011;11438;52.044;8.716;2024-01-10T02:19:20;8.63;;;5.20;;
22543;SDS011;11438;52.044;8.716;2024-01-10T02:21:46;9.23;;;5.07;;
22543;SDS011;11438;52.044;8.716;2024-01-10T02:24:12;11.37;;;5.50;;
22543;SDS011;11438;52.044;8.716;2024-01-10T02:26:38;11.00;;;5.80;;
22543;SDS011;11438;52.044;8.716;2024-01-10T02:29:04;8.47;;;5.10;;
22543;SDS011;11438;52.044;8.716;2024-01-10T02:31:30;9.23;;;4.97;;
22543;SDS011;11438;52.044;8.716;2024-01-10T02:33:55;10.30;;;4.93;;
22543;SDS011;11438;52.044;8.716;2024-01-10T02:36:21;10.60;;;5.53;;
22543;SDS011;11438;52.044;8.716;2024-01-10T02:38:46;11.17;;;5.60;;
22543;SDS011;11438;52.044;8.716;2024-01-10T02:41:12;12.03;;;5.60;;
22543;SDS011;11438;52.044;8.716;2024-01-10T02:43:38;10.73;;;5.40;;
22543;SDS011;11438;52.044;8.716;2024-01-10T02:46:04;8.50;;;5.13;;
22543;SDS011;11438;52.044;8.716;2024-01-10T02:48:29;11.40;;;6.07;;
22543;SDS011;11438;52.044;8.716;2024-01-10T02:50:55;11.70;;;5.43;;
22543;SDS011;11438;52.044;8.716;2024-01-10T02:53:20;9.90;;;5.53;;
22543;SDS011;11438;52.044;8.716;2024-01-10T02:55:46;10.90;;;5.93;;
22543;SDS011;11438;52.044;8.716;2024-01-10T02:58:13;9.93;;;5.27;;
22543;SDS011;11438;52.044;8.716;2024-01-10T03:00:38;9.13;;;4.83;;
22543;SDS011;11438;52.044;8.716;2024-01-10T03:03:04;7.93;;;5.17;;
22543;SDS011;11438;52.044;8.716;2024-01-10T03:05:29;10.03;;;5.10;;
22543;SDS011;11438;52.044;8.716;2024-01-10T03:07:55;9.73;;;5.73;;
22543;SDS011;11438;52.044;8.716;2024-01-10T03:10:20;10.00;;;5.90;;
22543;SDS011;11438;52.044;8.716;2024-01-10T03:12:46;7.83;;;4.80;;
22543;SDS011;11438;52.044;8.716;2024-01-10T03:15:11;12.17;;;5.83;;
22543;SDS011;11438;52.044;8.716;2024-01-10T03:17:37;10.47;;;5.50;;
22543;SDS011;11438;52.044;8.716;2024-01-10T03:20:02;9.00;;;5.17;;
22543;SDS011;11438;52.044;8.716;2024-01-10T03:22:29;10.73;;;5.47;;
22543;SDS011;11438;52.044;8.716;2024-01-10T03:24:55;11.07;;;6.00;;
22543;SDS011;11438;52.044;8.716;2024-01-10T03:27:21;11.63;;;5.43;;
22543;SDS011;11438;52.044;8.716;2024-01-10T03:29:46;8.50;;;4.70;;
22543;SDS011;11438;52.044;8.716;2024-01-10T03:32:12;10.80;;;5.77;;
22543;SDS011;11438;52.044;8.716;2024-01-10T03:34:38;11.60;;;5.50;;
22543;SDS011;11438;52.044;8.716;2024-01-10T03:37:03;9.57;;;5.50;;
22543;SDS011;11438;52.044;8.716;2024-01-10T03:39:29;10.23;;;5.73;;
22543;SDS011;11438;52.044;8.716;2024-01-10T03:41:55;9.83;;;5.30;;
22543;SDS011;11438;52.044;8.716;2024-01-10T03:44:21;11.47;;;5.10;;
22543;SDS011;11438;52.044;8.716;2024-01-10T03:46:46;10.47;;;5.60;;
22543;SDS011;11438;52.044;8.716;2024-01-10T03:49:12;11.87;;;5.73;;
22543;SDS011;11438;52.044;8.716;2024-01-10T03:51:37;15.27;;;5.97;;
22543;SDS011;11438;52.044;8.716;2024-01-10T03:54:05;10.37;;;5.43;;
22543;SDS011;11438;52.044;8.716;2024-01-10T03:56:31;8.93;;;5.47;;
22543;SDS011;11438;52.044;8.716;2024-01-10T03:58:56;10.27;;;5.77;;
22543;SDS011;11438;52.044;8.716;2024-01-10T04:01:22;13.73;;;5.70;;
22543;SDS011;11438;52.044;8.716;2024-01-10T04:03:48;10.23;;;5.90;;
22543;SDS011;11438;52.044;8.716;2024-01-10T04:06:14;11.20;;;5.93;;
22543;SDS011;11438;52.044;8.716;2024-01-10T04:08:40;13.97;;;6.27;;
22543;SDS011;11438;52.044;8.716;2024-01-10T04:11:05;12.63;;;6.70;;
22543;SDS011;11438;52.044;8.716;2024-01-10T04:13:31;11.33;;;6.00;;
22543;SDS011;11438;52.044;8.716;2024-01-10T04:15:56;9.67;;;5.50;;
22543;SDS011;11438;52.044;8.716;2024-01-10T04:18:22;9.47;;;5.80;;
22543;SDS011;11438;52.044;8.716;2024-01-10T04:20:47;13.13;;;6.37;;
22543;SDS011;11438;52.044;8.716;2024-01-10T04:23:14;11.43;;;5.77;;
22543;SDS011;11438;52.044;8.716;2024-01-10T04:25:39;11.23;;;6.30;;
22543;SDS011;11438;52.044;8.716;2024-01-10T04:28:05;11.90;;;6.40;;
22543;SDS011;11438;52.044;8.716;2024-01-10T04:30:31;11.73;;;6.60;;
22543;SDS011;11438;52.044;8.716;2024-01-10T04:32:56;9.47;;;5.80;;
22543;SDS011;11438;52.044;8.716;2024-01-10T04:35:22;11.43;;;6.03;;
22543;SDS011;11438;52.044;8.716;2024-01-10T04:37:47;13.67;;;6.77;;
22543;SDS011;11438;52.044;8.716;2024-01-10T04:40:13;14.27;;;6.33;;
22543;SDS011;11438;52.044;8.716;2024-01-10T04:42:38;10.93;;;6.47;;
22543;SDS011;11438;52.044;8.716;2024-01-10T04:45:04;12.37;;;6.10;;
22543;SDS011;11438;52.044;8.716;2024-01-10T04:47:32;12.07;;;6.63;;
22543;SDS011;11438;52.044;8.716;2024-01-10T04:49:57;12.53;;;6.73;;
22543;SDS011;11438;52.044;8.716;2024-01-10T04:52:23;11.70;;;6.57;;
22543;SDS011;11438;52.044;8.716;2024-01-10T04:54:48;14.27;;;6.77;;
22543;SDS011;11438;52.044;8.716;2024-01-10T04:57:14;12.57;;;6.90;;
22543;SDS011;11438;52.044;8.716;2024-01-10T04:59:40;16.30;;;7.50;;
22543;SDS011;11438;52.044;8.716;2024-01-10T05:02:06;15.73;;;7.80;;
22543;SDS011;11438;52.044;8.716;2024-01-10T05:04:32;13.77;;;7.27;;
22543;SDS011;11438;52.044;8.716;2024-01-10T05:06:58;15.37;;;8.27;;
22543;SDS011;11438;52.044;8.716;2024-01-10T05:09:23;12.50;;;6.90;;
22543;SDS011;11438;52.044;8.716;2024-01-10T05:11:48;12.47;;;7.00;;
22543;SDS011;11438;52.044;8.716;2024-01-10T05:14:16;13.63;;;7.43;;
22543;SDS011;11438;52.044;8.716;2024-01-10T05:16:44;15.23;;;7.60;;
22543;SDS011;11438;52.044;8.716;2024-01-10T05:19:10;14.50;;;7.37;;
22543;SDS011;11438;52.044;8.716;2024-01-10T05:21:35;13.17;;;7.63;;
22543;SDS011;11438;52.044;8.716;2024-01-10T05:24:01;13.63;;;7.10;;
22543;SDS011;11438;52.044;8.716;2024-01-10T05:26:26;14.63;;;7.90;;
22543;SDS011;11438;52.044;8.716;2024-01-10T05:28:52;13.90;;;8.20;;
22543;SDS011;11438;52.044;8.716;2024-01-10T05:31:17;14.37;;;7.23;;
22543;SDS011;11438;52.044;8.716;2024-01-10T05:33:43;15.43;;;7.47;;
22543;SDS011;11438;52.044;8.716;2024-01-10T05:36:09;14.03;;;7.33;;
22543;SDS011;11438;52.044;8.716;2024-01-10T05:38:37;12.17;;;6.70;;
22543;SDS011;11438;52.044;8.716;2024-01-10T05:41:03;14.80;;;7.97;;
22543;SDS011;11438;52.044;8.716;2024-01-10T05:43:29;13.60;;;7.60;;
22543;SDS011;11438;52.044;8.716;2024-01-10T05:45:54;15.63;;;7.47;;
22543;SDS011;11438;52.044;8.716;2024-01-10T05:48:20;14.03;;;7.67;;
22543;SDS011;11438;52.044;8.716;2024-01-10T05:50:45;13.63;;;7.57;;
22543;SDS011;11438;52.044;8.716;2024-01-10T05:53:11;14.90;;;8.00;;
22543;SDS011;11438;52.044;8.716;2024-01-10T05:55:38;14.10;;;7.77;;
22543;SDS011;11438;52.044;8.716;2024-01-10T05:58:04;15.63;;;7.80;;
22543;SDS011;11438;52.044;8.716;2024-01-10T06:00:29;12.20;;;7.00;;
22543;SDS011;11438;52.044;8.716;2024-01-10T06:02:55;12.57;;;6.70;;
22543;SDS011;11438;52.044;8.716;2024-01-10T06:05:20;10.00;;;6.30;;
22543;SDS011;11438;52.044;8.716;2024-01-10T06:07:46;14.47;;;7.43;;
22543;SDS011;11438;52.044;8.716;2024-01-10T06:10:12;12.30;;;6.83;;
22543;SDS011;11438;52.044;8.716;2024-01-10T06:12:37;12.00;;;6.77;;
22543;SDS011;11438;52.044;8.716;2024-01-10T06:15:03;15.53;;;7.30;;
22543;SDS011;11438;52.044;8.716;2024-01-10T06:17:29;15.70;;;7.93;;
22543;SDS011;11438;52.044;8.716;2024-01-10T06:19:56;13.40;;;8.00;;
22543;SDS011;11438;52.044;8.716;2024-01-10T06:22:24;16.17;;;7.90;;
22543;SDS011;11438;52.044;8.716;2024-01-10T06:24:50;16.63;;;7.43;;
22543;SDS011;11438;52.044;8.716;2024-01-10T06:27:15;13.83;;;7.57;;
22543;SDS011;11438;52.044;8.716;2024-01-10T06:29:43;14.27;;;7.73;;
22543;SDS011;11438;52.044;8.716;2024-01-10T06:32:10;14.30;;;7.27;;
22543;SDS011;11438;52.044;8.716;2024-01-10T06:34:35;15.93;;;7.53;;
22543;SDS011;11438;52.044;8.716;2024-01-10T06:37:01;16.60;;;8.23;;
22543;SDS011;11438;52.044;8.716;2024-01-10T06:39:27;15.00;;;8.13;;
22543;SDS011;11438;52.044;8.716;2024-01-10T06:41:52;15.23;;;8.23;;
22543;SDS011;11438;52.044;8.716;2024-01-10T06:44:18;13.47;;;7.23;;
22543;SDS011;11438;52.044;8.716;2024-01-10T06:46:44;16.07;;;7.93;;
22543;SDS011;11438;52.044;8.716;2024-01-10T06:49:10;15.27;;;8.67;;
22543;SDS011;11438;52.044;8.716;2024-01-10T06:51:35;15.87;;;8.33;;
22543;SDS011;11438;52.044;8.716;2024-01-10T06:54:01;17.37;;;9.30;;
22543;SDS011;11438;52.044;8.716;2024-01-10T06:56:30;19.17;;;8.83;;
22543;SDS011;11438;52.044;8.716;2024-01-10T06:58:56;15.93;;;9.23;;
22543;SDS011;11438;52.044;8.716;2024-01-10T07:01:22;25.97;;;9.90;;
22543;SDS011;11438;52.044;8.716;2024-01-10T07:03:48;23.10;;;8.60;;
22543;SDS011;11438;52.044;8.716;2024-01-10T07:06:13;19.43;;;9.03;;
22543;SDS011;11438;52.044;8.716;2024-01-10T07:08:42;14.93;;;8.33;;
22543;SDS011;11438;52.044;8.716;2024-01-10T07:11:09;20.30;;;9.30;;
22543;SDS011;11438;52.044;8.716;2024-01-10T07:13:36;26.10;;;8.50;;
22543;SDS011;11438;52.044;8.716;2024-01-10T07:16:01;19.10;;;7.63;;
22543;SDS011;11438;52.044;8.716;2024-01-10T07:18:30;15.90;;;8.17;;
22543;SDS011;11438;52.044;8.716;2024-01-10T07:20:56;17.43;;;8.83;;
22543;SDS011;11438;52.044;8.716;2024-01-10T07:23:21;15.37;;;8.47;;
22543;SDS011;11438;52.044;8.716;2024-01-10T07:25:50;16.53;;;8.17;;
22543;SDS011;11438;52.044;8.716;2024-01-10T07:28:16;16.37;;;8.57;;
22543;SDS011;11438;52.044;8.716;2024-01-10T07:30:42;14.40;;;7.87;;
22543;SDS011;11438;52.044;8.716;2024-01-10T07:33:09;15.20;;;8.23;;
22543;SDS011;11438;52.044;8.716;2024-01-10T07:35:35;18.00;;;9.40;;
22543;SDS011;11438;52.044;8.716;2024-01-10T07:38:00;20.10;;;9.17;;
22543;SDS011;11438;52.044;8.716;2024-01-10T07:40:25;16.77;;;8.80;;
22543;SDS011;11438;52.044;8.716;2024-01-10T07:42:51;19.30;;;8.57;;
22543;SDS011;11438;52.044;8.716;2024-01-10T07:45:16;15.73;;;8.27;;
22543;SDS011;11438;52.044;8.716;2024-01-10T07:47:42;15.80;;;8.80;;
22543;SDS011;11438;52.044;8.716;2024-01-10T07:50:08;15.13;;;8.17;;
22543;SDS011;11438;52.044;8.716;2024-01-10T07:52:34;17.17;;;9.40;;
22543;SDS011;11438;52.044;8.716;2024-01-10T07:55:00;13.27;;;7.70;;
22543;SDS011;11438;52.044;8.716;2024-01-10T07:57:26;20.40;;;9.20;;
22543;SDS011;11438;52.044;8.716;2024-01-10T07:59:52;14.87;;;8.40;;
22543;SDS011;11438;52.044;8.716;2024-01-10T08:02:18;18.53;;;9.40;;
22543;SDS011;11438;52.044;8.716;2024-01-10T08:04:44;17.27;;;8.93;;
22543;SDS011;11438;52.044;8.716;2024-01-10T08:07:10;17.90;;;8.30;;
22543;SDS011;11438;52.044;8.716;2024-01-10T08:09:35;15.27;;;8.10;;
22543;SDS011;11438;52.044;8.716;2024-01-10T08:12:01;15.23;;;8.47;;
22543;SDS011;11438;52.044;8.716;2024-01-10T08:14:28;14.60;;;8.07;;
22543;SDS011;11438;52.044;8.716;2024-01-10T08:16:53;18.67;;;8.03;;
22543;SDS011;11438;52.044;8.716;2024-01-10T08:19:19;20.70;;;8.57;;
22543;SDS011;11438;52.044;8.716;2024-01-10T08:21:45;21.37;;;8.63;;
22543;SDS011;11438;52.044;8.716;2024-01-10T08:24:10;16.37;;;8.87;;
22543;SDS011;11438;52.044;8.716;2024-01-10T08:26:36;17.07;;;8.57;;
22543;SDS011;11438;52.044;8.716;2024-01-10T08:29:02;16.57;;;8.47;;
22543;SDS011;11438;52.044;8.716;2024-01-10T08:31:28;22.47;;;9.20;;
22543;SDS011;11438;52.044;8.716;2024-01-10T08:33:54;19.47;;;9.03;;
22543;SDS011;11438;52.044;8.716;2024-01-10T08:36:21;21.07;;;8.77;;
22543;SDS011;11438;52.044;8.716;2024-01-10T08:38:49;28.10;;;8.87;;
22543;SDS011;11438;52.044;8.716;2024-01-10T08:41:15;26.33;;;9.63;;
22543;SDS011;11438;52.044;8.716;2024-01-10T08:43:40;24.13;;;10.97;;
22543;SDS011;11438;52.044;8.716;2024-01-10T08:46:06;18.57;;;10.20;;
22543;SDS011;11438;52.044;8.716;2024-01-10T08:48:33;16.83;;;9.40;;
22543;SDS011;11438;52.044;8.716;2024-01-10T08:50:58;17.73;;;9.53;;
22543;SDS011;11438;52.044;8.716;2024-01-10T08:53:24;18.77;;;9.40;;
22543;SDS011;11438;52.044;8.716;2024-01-10T08:55:49;15.13;;;9.00;;
22543;SDS011;11438;52.044;8.716;2024-01-10T08:58:15;22.17;;;9.67;;
22543;SDS011;11438;52.044;8.716;2024-01-10T09:00:40;34.67;;;10.20;;
22543;SDS011;11438;52.044;8.716;2024-01-10T09:03:06;16.03;;;9.33;;
22543;SDS011;11438;52.044;8.716;2024-01-10T09:05:32;21.37;;;9.50;;
22543;SDS011;11438;52.044;8.716;2024-01-10T09:07:57;21.13;;;8.73;;
22543;SDS011;11438;52.044;8.716;2024-01-10T09:10:23;18.13;;;9.90;;
22543;SDS011;11438;52.044;8.716;2024-01-10T09:12:52;18.07;;;8.47;;
22543;SDS011;11438;52.044;8.716;2024-01-10T09:15:18;19.10;;;9.60;;
22543;SDS011;11438;52.044;8.716;2024-01-10T09:17:43;19.67;;;10.60;;
22543;SDS011;11438;52.044;8.716;2024-01-10T09:20:13;20.50;;;10.37;;
22543;SDS011;11438;52.044;8.716;2024-01-10T09:22:38;18.40;;;9.83;;
22543;SDS011;11438;52.044;8.716;2024-01-10T09:25:04;19.30;;;9.87;;
22543;SDS011;11438;52.044;8.716;2024-01-10T09:27:34;19.03;;;9.23;;
22543;SDS011;11438;52.044;8.716;2024-01-10T09:30:00;22.40;;;10.37;;
22543;SDS011;11438;52.044;8.716;2024-01-10T09:32:33;24.90;;;10.10;;
22543;SDS011;11438;52.044;8.716;2024-01-10T09:35:00;24.43;;;8.93;;
22543;SDS011;11438;52.044;8.716;2024-01-10T09:37:25;19.17;;;10.07;;
22543;SDS011;11438;52.044;8.716;2024-01-10T09:39:51;15.97;;;8.90;;
22543;SDS011;11438;52.044;8.716;2024-01-10T09:42:17;15.00;;;9.03;;
22543;SDS011;11438;52.044;8.716;2024-01-10T09:44:43;18.97;;;10.07;;
22543;SDS011;11438;52.044;8.716;2024-01-10T09:47:10;26.97;;;10.03;;
22543;SDS011;11438;52.044;8.716;2024-01-10T09:49:38;21.00;;;9.77;;
22543;SDS011;11438;52.044;8.716;2024-01-10T09:52:03;18.87;;;9.93;;
22543;SDS011;11438;52.044;8.716;2024-01-10T09:54:32;21.60;;;10.43;;
22543;SDS011;11438;52.044;8.716;2024-01-10T09:57:00;24.23;;;11.47;;
22543;SDS011;11438;52.044;8.716;2024-01-10T09:59:25;21.50;;;10.60;;
22543;SDS011;11438;52.044;8.716;2024-01-10T10:01:54;16.40;;;9.53;;
22543;SDS011;11438;52.044;8.716;2024-01-10T10:04:22;22.00;;;10.33;;
22543;SDS011;11438;52.044;8.716;2024-01-10T10:07:01;22.00;;;10.50;;
22543;SDS011;11438;52.044;8.716;2024-01-10T10:09:27;22.83;;;11.07;;
22543;SDS011;11438;52.044;8.716;2024-01-10T10:11:54;28.07;;;11.67;;
22543;SDS011;11438;52.044;8.716;2024-01-10T10:14:20;20.57;;;11.37;;
22543;SDS011;11438;52.044;8.716;2024-01-10T10:16:47;22.50;;;11.13;;
22543;SDS011;11438;52.044;8.716;2024-01-10T10:19:12;22.33;;;10.87;;
22543;SDS011;11438;52.044;8.716;2024-01-10T10:21:48;22.67;;;10.60;;
22543;SDS011;11438;52.044;8.716;2024-01-10T10:24:13;20.60;;;10.57;;
22543;SDS011;11438;52.044;8.716;2024-01-10T10:26:39;23.93;;;10.53;;
22543;SDS011;11438;52.044;8.716;2024-01-10T10:29:06;21.10;;;11.23;;
22543;SDS011;11438;52.044;8.716;2024-01-10T10:31:31;29.20;;;11.93;;
22543;SDS011;11438;52.044;8.716;2024-01-10T10:33:59;19.63;;;10.90;;
22543;SDS011;11438;52.044;8.716;2024-01-10T10:36:25;24.87;;;11.57;;
22543;SDS011;11438;52.044;8.716;2024-01-10T10:38:51;22.40;;;10.67;;
22543;SDS011;11438;52.044;8.716;2024-01-10T10:41:17;37.30;;;11.97;;
22543;SDS011;11438;52.044;8.716;2024-01-10T10:43:44;39.83;;;11.13;;
22543;SDS011;11438;52.044;8.716;2024-01-10T10:46:10;28.63;;;10.47;;
22543;SDS011;11438;52.044;8.716;2024-01-10T10:48:39;24.23;;;10.83;;
22543;SDS011;11438;52.044;8.716;2024-01-10T10:51:09;25.13;;;11.13;;
22543;SDS011;11438;52.044;8.716;2024-01-10T10:53:48;19.97;;;11.17;;
22543;SDS011;11438;52.044;8.716;2024-01-10T10:56:15;19.67;;;10.50;;
22543;SDS011;11438;52.044;8.716;2024-01-10T10:58:42;21.10;;;10.07;;
22543;SDS011;11438;52.044;8.716;2024-01-10T11:01:09;20.80;;;11.37;;
22543;SDS011;11438;52.044;8.716;2024-01-10T11:03:37;18.33;;;9.87;;
22543;SDS011;11438;52.044;8.716;2024-01-10T11:06:05;17.60;;;10.50;;
22543;SDS011;11438;52.044;8.716;2024-01-10T11:08:40;20.13;;;11.40;;
22543;SDS011;11438;52.044;8.716;2024-01-10T11:11:33;20.10;;;10.83;;
22543;SDS011;11438;52.044;8.716;2024-01-10T11:24:39;20.37;;;10.67;;
22543;SDS011;11438;52.044;8.716;2024-01-10T11:27:06;19.30;;;10.13;;
22543;SDS011;11438;52.044;8.716;2024-01-10T11:29:41;18.37;;;10.10;;
22543;SDS011;11438;52.044;8.716;2024-01-10T11:32:16;18.70;;;9.57;;
22543;SDS011;11438;52.044;8.716;2024-01-10T11:35:05;20.67;;;9.90;;
22543;SDS011;11438;52.044;8.716;2024-01-10T11:37:44;19.67;;;10.37;;
22543;SDS011;11438;52.044;8.716;2024-01-10T11:40:11;19.20;;;10.13;;
22543;SDS011;11438;52.044;8.716;2024-01-10T11:42:41;20.00;;;10.17;;
22543;SDS011;11438;52.044;8.716;2024-01-10T11:45:07;20.00;;;10.83;;
22543;SDS011;11438;52.044;8.716;2024-01-10T11:47:33;21.30;;;10.27;;
22543;SDS011;11438;52.044;8.716;2024-01-10T11:49:59;19.37;;;10.70;;
22543;SDS011;11438;52.044;8.716;2024-01-10T11:52:34;18.83;;;10.87;;
22543;SDS011;11438;52.044;8.716;2024-01-10T11:55:01;19.00;;;10.57;;
22543;SDS011;11438;52.044;8.716;2024-01-10T11:57:29;18.63;;;11.23;;
22543;SDS011;11438;52.044;8.716;2024-01-10T11:59:58;18.53;;;10.30;;
22543;SDS011;11438;52.044;8.716;2024-01-10T12:02:25;22.27;;;11.87;;
22543;SDS011;11438;52.044;8.716;2024-01-10T12:04:54;18.60;;;10.67;;
22543;SDS011;11438;52.044;8.716;2024-01-10T12:07:20;21.83;;;11.10;;
22543;SDS011;11438;52.044;8.716;2024-01-10T12:09:46;27.17;;;11.17;;
22543;SDS011;11438;52.044;8.716;2024-01-10T12:12:12;22.53;;;11.67;;
22543;SDS011;11438;52.044;8.716;2024-01-10T12:14:39;27.30;;;11.67;;
22543;SDS011;11438;52.044;8.716;2024-01-10T12:17:05;21.43;;;10.83;;
22543;SDS011;11438;52.044;8.716;2024-01-10T12:19:33;17.93;;;10.53;;
22543;SDS011;11438;52.044;8.716;2024-01-10T12:22:00;25.00;;;11.70;;
22543;SDS011;11438;52.044;8.716;2024-01-10T12:24:29;21.53;;;11.60;;
22543;SDS011;11438;52.044;8.716;2024-01-10T12:26:55;22.47;;;11.77;;
22543;SDS011;11438;52.044;8.716;2024-01-10T12:29:21;22.77;;;11.40;;
22543;SDS011;11438;52.044;8.716;2024-01-10T12:31:47;22.90;;;11.93;;
22543;SDS011;11438;52.044;8.716;2024-01-10T12:34:13;18.90;;;10.20;;
22543;SDS011;11438;52.044;8.716;2024-01-10T12:36:39;25.70;;;11.33;;
22543;SDS011;11438;52.044;8.716;2024-01-10T12:39:09;20.60;;;11.27;;
22543;SDS011;11438;52.044;8.716;2024-01-10T12:41:35;21.83;;;11.30;;
22543;SDS011;11438;52.044;8.716;2024-01-10T12:44:01;21.50;;;11.83;;
22543;SDS011;11438;52.044;8.716;2024-01-10T12:46:31;23.43;;;12.37;;
22543;SDS011;11438;52.044;8.716;2024-01-10T12:48:58;24.43;;;11.87;;
22543;SDS011;11438;52.044;8.716;2024-01-10T12:51:25;21.37;;;11.60;;
22543;SDS011;11438;52.044;8.716;2024-01-10T12:53:51;23.87;;;11.70;;
22543;SDS011;11438;52.044;8.716;2024-01-10T12:56:18;23.20;;;11.63;;
22543;SDS011;11438;52.044;8.716;2024-01-10T12:58:43;21.83;;;11.97;;
22543;SDS011;11438;52.044;8.716;2024-01-10T13:01:09;22.57;;;12.30;;
22543;SDS011;11438;52.044;8.716;2024-01-10T13:03:34;24.13;;;11.80;;
22543;SDS011;11438;52.044;8.716;2024-01-10T13:06:00;22.20;;;11.63;;
22543;SDS011;11438;52.044;8.716;2024-01-10T13:08:26;27.17;;;11.77;;
22543;SDS011;11438;52.044;8.716;2024-01-10T13:10:52;25.00;;;11.10;;
22543;SDS011;11438;52.044;8.716;2024-01-10T13:13:18;24.13;;;12.27;;
22543;SDS011;11438;52.044;8.716;2024-01-10T13:15:46;32.87;;;11.97;;
22543;SDS011;11438;52.044;8.716;2024-01-10T13:18:13;25.60;;;12.57;;
22543;SDS011;11438;52.044;8.716;2024-01-10T13:20:40;22.70;;;11.83;;
22543;SDS011;11438;52.044;8.716;2024-01-10T13:23:05;25.40;;;13.17;;
22543;SDS011;11438;52.044;8.716;2024-01-10T13:25:32;24.30;;;11.90;;
22543;SDS011;11438;52.044;8.716;2024-01-10T13:27:58;26.27;;;13.03;;
22543;SDS011;11438;52.044;8.716;2024-01-10T13:30:25;63.70;;;12.80;;
22543;SDS011;11438;52.044;8.716;2024-01-10T13:32:51;45.20;;;12.13;;
22543;SDS011;11438;52.044;8.716;2024-01-10T13:35:16;33.87;;;12.73;;
22543;SDS011;11438;52.044;8.716;2024-01-10T13:37:42;23.07;;;12.30;;
22543;SDS011;11438;52.044;8.716;2024-01-10T13:40:08;24.33;;;11.57;;
22543;SDS011;11438;52.044;8.716;2024-01-10T13:42:38;22.23;;;12.57;;
22543;SDS011;11438;52.044;8.716;2024-01-10T13:45:05;23.13;;;12.90;;
22543;SDS011;11438;52.044;8.716;2024-01-10T13:47:31;27.27;;;13.80;;
22543;SDS011;11438;52.044;8.716;2024-01-10T13:49:58;23.80;;;12.37;;
22543;SDS011;11438;52.044;8.716;2024-01-10T13:52:24;26.37;;;13.77;;
22543;SDS011;11438;52.044;8.716;2024-01-10T13:54:50;25.47;;;13.00;;
22543;SDS011;11438;52.044;8.716;2024-01-10T13:57:16;22.37;;;12.87;;
22543;SDS011;11438;52.044;8.716;2024-01-10T13:59:42;26.80;;;12.53;;
22543;SDS011;11438;52.044;8.716;2024-01-10T14:02:07;25.40;;;12.67;;
22543;SDS011;11438;52.044;8.716;2024-01-10T14:04:33;24.33;;;12.37;;
22543;SDS011;11438;52.044;8.716;2024-01-10T14:06:59;24.30;;;13.03;;
22543;SDS011;11438;52.044;8.716;2024-01-10T14:09:24;25.80;;;13.37;;
22543;SDS011;11438;52.044;8.716;2024-01-10T14:11:50;30.23;;;13.83;;
22543;SDS011;11438;52.044;8.716;2024-01-10T14:14:15;22.77;;;12.77;;
22543;SDS011;11438;52.044;8.716;2024-01-10T14:16:41;22.23;;;12.23;;
22543;SDS011;11438;52.044;8.716;2024-01-10T14:19:07;22.00;;;13.07;;
22543;SDS011;11438;52.044;8.716;2024-01-10T14:21:32;29.67;;;14.20;;
22543;SDS011;11438;52.044;8.716;2024-01-10T14:23:58;23.73;;;13.03;;
22543;SDS011;11438;52.044;8.716;2024-01-10T14:26:23;25.83;;;13.37;;
22543;SDS011;11438;52.044;8.716;2024-01-10T14:28:51;24.43;;;13.17;;
22543;SDS011;11438;52.044;8.716;2024-01-10T14:31:20;25.83;;;13.87;;
22543;SDS011;11438;52.044;8.716;2024-01-10T14:33:46;31.77;;;13.73;;
22543;SDS011;11438;52.044;8.716;2024-01-10T14:36:11;26.60;;;12.87;;
22543;SDS011;11438;52.044;8.716;2024-01-10T14:38:38;29.13;;;14.80;;